Time;durP1;ratioP1;P1;durP2;ratioP2;P2;SDS_P1;SDS_P2;PMS_P1;PMS_P2;Temp;Humidity;BMP_temperature;BMP_pressure;BME280_temperature;BME280_humidity;BME280_pressure;Samples;Min_cycle;Max_cycle;Signal;HPM_P1;HPM_P2
2021/07/31 00:01:44;;;;;;;4.15;3.10;;;18.10;99.90;;;;;;5004937;28;20054;-83
2021/07/31 00:04:11;;;;;;;8.73;3.22;;;18.00;99.90;;;;;;5004999;28;20082;-82
2021/07/31 00:06:38;;;;;;;7.53;3.20;;;18.00;99.90;;;;;;5005163;28;20077;-82
2021/07/31 00:09:05;;;;;;;8.70;3.40;;;18.00;99.90;;;;;;5004986;28;20503;-83
2021/07/31 00:11:32;;;;;;;4.50;2.83;;;18.00;99.90;;;;;;5006381;28;20491;-81
2021/07/31 00:13:59;;;;;;;6.70;3.10;;;18.00;99.90;;;;;;5005076;28;20050;-85
2021/07/31 00:16:25;;;;;;;5.28;2.85;;;18.00;99.90;;;;;;5002075;28;20054;-83
2021/07/31 00:18:54;;;;;;;7.18;3.25;;;18.00;99.90;;;;;;5000349;28;20135;-82
2021/07/31 00:21:21;;;;;;;7.10;2.95;;;17.90;99.90;;;;;;5000106;28;20564;-82
2021/07/31 00:23:48;;;;;;;5.03;3.28;;;17.90;99.90;;;;;;5000108;28;20110;-84
2021/07/31 00:26:15;;;;;;;4.38;2.55;;;17.80;99.90;;;;;;5000165;28;20534;-82
2021/07/31 00:28:42;;;;;;;6.10;3.25;;;17.80;99.90;;;;;;4999880;28;20060;-81
2021/07/31 00:31:09;;;;;;;5.32;2.97;;;17.80;99.90;;;;;;5001246;28;20051;-84
2021/07/31 00:33:36;;;;;;;6.90;3.00;;;17.80;99.90;;;;;;4999433;28;20101;-81
2021/07/31 00:36:04;;;;;;;4.93;2.80;;;17.80;99.90;;;;;;4999050;28;20086;-85
2021/07/31 00:38:31;;;;;;;5.25;3.30;;;17.80;99.90;;;;;;5001284;28;20046;-82
2021/07/31 00:40:58;;;;;;;6.13;3.22;;;17.80;99.90;;;;;;5001586;28;20053;-86
2021/07/31 00:43:25;;;;;;;8.85;3.47;;;17.80;99.90;;;;;;4999343;28;20085;-84
2021/07/31 00:45:52;;;;;;;5.95;3.20;;;17.80;99.90;;;;;;5000928;28;20057;-85
2021/07/31 00:48:19;;;;;;;7.22;3.30;;;17.80;99.90;;;;;;5001682;28;20150;-84
2021/07/31 00:50:46;;;;;;;5.03;2.70;;;17.80;99.90;;;;;;5001683;28;20110;-85
2021/07/31 00:53:14;;;;;;;8.13;3.28;;;17.80;99.90;;;;;;5001594;28;20043;-85
2021/07/31 00:55:42;;;;;;;8.15;3.08;;;17.80;99.90;;;;;;5001326;28;20579;-85
2021/07/31 00:58:09;;;;;;;6.47;3.08;;;17.80;99.90;;;;;;5002069;28;20079;-84
2021/07/31 01:00:36;;;;;;;4.57;3.05;;;17.90;99.90;;;;;;5001496;28;20054;-84
2021/07/31 01:03:05;;;;;;;7.82;3.35;;;17.90;99.90;;;;;;5001290;28;20218;-84
2021/07/31 01:05:33;;;;;;;8.13;3.30;;;17.90;99.90;;;;;;5001448;28;20109;-84
2021/07/31 01:08:00;;;;;;;6.07;3.08;;;17.90;99.90;;;;;;5002781;28;20050;-85
2021/07/31 01:10:29;;;;;;;8.73;3.00;;;18.00;99.90;;;;;;5007536;28;20111;-83
2021/07/31 01:12:57;;;;;;;5.57;3.35;;;18.00;99.90;;;;;;5010411;28;20050;-82
2021/07/31 01:15:24;;;;;;;5.72;3.30;;;18.00;99.90;;;;;;5006019;28;20129;-84
2021/07/31 01:17:50;;;;;;;8.75;3.40;;;18.00;99.90;;;;;;5001913;28;20129;-84
2021/07/31 01:20:17;;;;;;;6.97;3.10;;;18.00;99.90;;;;;;5000987;28;20462;-84
2021/07/31 01:22:45;;;;;;;8.80;3.42;;;17.90;99.90;;;;;;5002875;28;20134;-84
2021/07/31 01:25:13;;;;;;;6.43;3.30;;;17.80;99.90;;;;;;5002783;28;20065;-85
2021/07/31 01:27:41;;;;;;;5.32;3.22;;;17.70;99.90;;;;;;5003531;28;20115;-85
2021/07/31 01:30:09;;;;;;;7.32;2.90;;;17.60;99.90;;;;;;5001969;28;20081;-85
2021/07/31 01:32:36;;;;;;;6.22;3.70;;;17.50;99.90;;;;;;5006092;28;20563;-85
2021/07/31 01:35:04;;;;;;;5.78;3.63;;;17.50;99.90;;;;;;5009618;28;20080;-85
2021/07/31 01:37:31;;;;;;;8.30;3.70;;;17.40;99.90;;;;;;5008136;28;20111;-85
2021/07/31 01:39:59;;;;;;;5.32;3.42;;;17.40;99.90;;;;;;5007757;28;20085;-85
2021/07/31 01:42:26;;;;;;;8.18;3.45;;;17.40;99.90;;;;;;5006741;28;20137;-84
2021/07/31 01:44:53;;;;;;;6.47;3.30;;;17.30;99.90;;;;;;5005537;28;20137;-83
2021/07/31 01:47:20;;;;;;;6.00;4.22;;;17.30;99.90;;;;;;5004993;28;20058;-84
2021/07/31 01:49:47;;;;;;;5.93;3.45;;;17.30;99.90;;;;;;5006142;28;20085;-85
2021/07/31 01:52:14;;;;;;;8.57;3.45;;;17.30;99.90;;;;;;5004710;28;20050;-85
2021/07/31 01:54:40;;;;;;;5.07;2.97;;;17.30;99.90;;;;;;5004235;28;20066;-84
2021/07/31 01:57:08;;;;;;;8.80;3.25;;;17.40;99.90;;;;;;5006076;28;20114;-83
2021/07/31 01:59:35;;;;;;;7.70;3.53;;;17.50;99.90;;;;;;5004385;28;20054;-85
2021/07/31 02:02:02;;;;;;;10.20;3.70;;;17.50;99.90;;;;;;5002813;28;20057;-84
2021/07/31 02:04:29;;;;;;;5.97;3.50;;;17.50;99.90;;;;;;5002242;28;20061;-85
2021/07/31 02:06:56;;;;;;;6.68;3.40;;;17.50;99.90;;;;;;5003476;28;20141;-83
2021/07/31 02:09:23;;;;;;;5.22;3.35;;;17.60;99.90;;;;;;5006440;28;20050;-86
2021/07/31 02:11:50;;;;;;;7.32;3.38;;;17.60;99.90;;;;;;5005965;28;20051;-85
2021/07/31 02:14:18;;;;;;;8.25;3.58;;;17.60;99.90;;;;;;5005573;28;20085;-84
2021/07/31 02:16:45;;;;;;;11.18;3.42;;;17.60;99.90;;;;;;5006949;28;20215;-85
2021/07/31 02:19:12;;;;;;;6.50;3.38;;;17.60;99.90;;;;;;5005569;28;20077;-85
2021/07/31 02:21:39;;;;;;;7.95;3.50;;;17.70;99.90;;;;;;5006762;28;20078;-86
2021/07/31 02:24:06;;;;;;;5.55;3.10;;;17.70;99.90;;;;;;5006373;28;20078;-85
2021/07/31 02:26:33;;;;;;;6.20;3.30;;;17.70;99.90;;;;;;5002275;28;20129;-84
2021/07/31 02:28:59;;;;;;;6.30;3.50;;;17.70;99.90;;;;;;5002313;28;20138;-84
2021/07/31 02:31:28;;;;;;;8.40;3.63;;;17.80;99.90;;;;;;5004391;28;20237;-84
2021/07/31 02:33:55;;;;;;;6.95;3.17;;;17.70;99.90;;;;;;5001643;28;20046;-83
2021/07/31 02:36:21;;;;;;;7.60;3.50;;;17.70;99.90;;;;;;5000947;28;20050;-82
2021/07/31 02:38:48;;;;;;;6.85;3.25;;;17.70;99.90;;;;;;5000539;28;20141;-83
2021/07/31 02:41:16;;;;;;;7.05;3.70;;;17.60;99.90;;;;;;5006063;28;20081;-83
2021/07/31 02:43:43;;;;;;;7.18;3.72;;;17.60;99.90;;;;;;5006306;28;20042;-84
2021/07/31 02:46:10;;;;;;;6.63;3.70;;;17.60;99.90;;;;;;5006328;28;20065;-84
2021/07/31 02:48:39;;;;;;;7.32;3.60;;;17.60;99.90;;;;;;5005201;28;20046;-84
2021/07/31 02:51:07;;;;;;;7.82;3.25;;;17.50;99.90;;;;;;5001468;28;20082;-84
2021/07/31 02:53:34;;;;;;;8.80;3.65;;;17.50;99.90;;;;;;5001179;28;20070;-85
2021/07/31 02:56:01;;;;;;;6.55;3.22;;;17.40;99.90;;;;;;5001969;28;20120;-83
2021/07/31 02:58:28;;;;;;;5.50;3.67;;;17.40;99.90;;;;;;4999437;28;20129;-83
2021/07/31 03:00:55;;;;;;;5.63;3.38;;;17.40;99.90;;;;;;4999699;28;20110;-82
2021/07/31 03:03:21;;;;;;;7.53;4.28;;;17.30;99.90;;;;;;4999531;28;20058;-84
2021/07/31 03:05:57;;;;;;;8.23;3.47;;;17.30;99.90;;;;;;4999424;28;20125;-83
2021/07/31 03:08:25;;;;;;;4.18;3.40;;;17.30;99.90;;;;;;4998551;28;20115;-82
2021/07/31 03:10:56;;;;;;;7.43;3.75;;;17.40;99.90;;;;;;4999135;28;20427;-83
2021/07/31 03:13:23;;;;;;;6.80;3.70;;;17.40;99.90;;;;;;4998744;28;20085;-84
2021/07/31 03:15:52;;;;;;;3.67;3.30;;;17.40;99.90;;;;;;5002220;28;20125;-82
2021/07/31 03:18:18;;;;;;;5.93;3.42;;;17.40;99.90;;;;;;5001703;28;20051;-84
2021/07/31 03:20:46;;;;;;;6.05;3.63;;;17.40;99.90;;;;;;5004764;28;20077;-83
2021/07/31 03:23:15;;;;;;;6.55;3.58;;;17.40;99.90;;;;;;5001616;28;20116;-83
2021/07/31 03:25:42;;;;;;;7.05;3.60;;;17.40;99.90;;;;;;5004728;28;20049;-85
2021/07/31 03:28:12;;;;;;;5.82;4.32;;;17.50;99.90;;;;;;5007941;28;20074;-86
2021/07/31 03:30:42;;;;;;;7.07;3.80;;;17.50;99.90;;;;;;5009837;28;20077;-84
2021/07/31 03:33:10;;;;;;;6.55;3.50;;;17.50;99.90;;;;;;5006812;28;20479;-83
2021/07/31 03:35:37;;;;;;;7.22;3.70;;;17.50;99.90;;;;;;5005836;28;20130;-85
2021/07/31 03:38:04;;;;;;;7.90;3.65;;;17.60;99.90;;;;;;5003128;28;20515;-84
2021/07/31 03:40:32;;;;;;;4.07;3.17;;;17.60;99.90;;;;;;5003846;28;20098;-85
2021/07/31 03:42:59;;;;;;;8.60;3.70;;;17.60;99.90;;;;;;5005404;28;20089;-83
2021/07/31 03:45:26;;;;;;;9.45;3.95;;;17.60;99.90;;;;;;5004354;28;20577;-84
2021/07/31 03:47:54;;;;;;;6.85;3.55;;;17.60;99.90;;;;;;5004985;28;20125;-86
2021/07/31 03:50:21;;;;;;;8.15;3.50;;;17.60;99.90;;;;;;5004503;28;20133;-84
2021/07/31 03:52:48;;;;;;;6.53;3.50;;;17.70;99.90;;;;;;5003514;28;20106;-86
2021/07/31 03:55:15;;;;;;;6.50;3.60;;;17.70;99.90;;;;;;5005010;28;20134;-85
2021/07/31 03:57:43;;;;;;;6.95;3.55;;;17.60;99.90;;;;;;5002595;28;20503;-82
2021/07/31 04:00:11;;;;;;;6.57;3.75;;;17.60;99.90;;;;;;5002650;28;20077;-86
2021/07/31 04:02:38;;;;;;;5.90;3.42;;;17.60;99.90;;;;;;5003415;28;20078;-86
2021/07/31 04:05:06;;;;;;;7.75;3.80;;;17.60;99.90;;;;;;5003739;28;20361;-86
2021/07/31 04:10:12;;;;;;;5.13;3.70;;;17.60;99.90;;;;;;3299968;26;20073;-84
2021/07/31 04:12:41;;;;;;;8.45;3.90;;;17.60;99.90;;;;;;5029558;28;20046;-84
2021/07/31 04:15:26;;;;;;;8.65;4.00;;;17.60;99.90;;;;;;5026625;28;20045;-84
2021/07/31 04:18:19;;;;;;;9.68;3.90;;;17.60;99.90;;;;;;5023298;28;20050;-83
2021/07/31 04:26:12;;;;;;;5.85;3.80;;;17.40;99.90;;;;;;5035946;28;20099;-81
2021/07/31 04:28:38;;;;;;;5.72;3.80;;;17.50;99.90;;;;;;5025534;28;20061;-81
2021/07/31 04:31:10;;;;;;;6.28;4.00;;;17.50;99.90;;;;;;5022559;28;20050;-82
2021/07/31 04:33:36;;;;;;;9.40;4.20;;;17.50;99.90;;;;;;5000815;28;20086;-80
2021/07/31 04:36:06;;;;;;;6.32;3.70;;;17.50;99.90;;;;;;5001834;28;20078;-81
2021/07/31 04:38:33;;;;;;;6.65;3.83;;;17.50;99.90;;;;;;5002575;28;20125;-81
2021/07/31 04:41:00;;;;;;;7.43;3.88;;;17.60;99.90;;;;;;5002268;28;20089;-81
2021/07/31 04:43:26;;;;;;;7.15;3.97;;;17.70;99.90;;;;;;5000762;28;20129;-81
2021/07/31 04:45:53;;;;;;;7.00;3.90;;;17.80;99.90;;;;;;5001142;28;20544;-81
2021/07/31 04:48:20;;;;;;;9.40;4.70;;;17.80;99.90;;;;;;5000637;28;20133;-81
2021/07/31 04:50:47;;;;;;;6.55;3.92;;;17.90;99.90;;;;;;5001401;28;20085;-82
2021/07/31 04:53:15;;;;;;;8.10;4.38;;;17.90;99.90;;;;;;5001271;28;20090;-81
2021/07/31 04:55:42;;;;;;;9.85;4.00;;;18.00;99.90;;;;;;5001618;28;20050;-82
2021/07/31 04:58:09;;;;;;;6.90;4.03;;;18.00;99.90;;;;;;5001872;28;20058;-81
2021/07/31 05:00:36;;;;;;;6.05;3.88;;;18.00;99.90;;;;;;4999184;28;20134;-80
2021/07/31 05:03:07;;;;;;;7.00;4.05;;;18.00;99.90;;;;;;4997248;28;20058;-82
2021/07/31 05:05:34;;;;;;;9.38;4.53;;;18.00;99.90;;;;;;4998588;28;20082;-80
2021/07/31 05:08:01;;;;;;;8.00;4.13;;;17.90;99.90;;;;;;5000287;28;20077;-80
2021/07/31 05:10:29;;;;;;;5.88;3.70;;;17.90;99.90;;;;;;4999112;28;20386;-79
2021/07/31 05:12:56;;;;;;;7.82;4.22;;;17.90;99.90;;;;;;4998069;28;20129;-81
2021/07/31 05:15:23;;;;;;;11.38;4.45;;;18.00;99.90;;;;;;4998085;28;20086;-81
2021/07/31 05:17:50;;;;;;;6.57;4.00;;;18.00;99.90;;;;;;4997058;28;20077;-79
2021/07/31 05:20:17;;;;;;;7.32;4.00;;;18.00;99.90;;;;;;4998367;28;20129;-80
2021/07/31 05:22:43;;;;;;;6.30;3.85;;;18.00;99.90;;;;;;4999490;28;20086;-81
2021/07/31 05:25:11;;;;;;;6.70;3.95;;;17.90;99.90;;;;;;4998141;28;20082;-80
2021/07/31 05:27:39;;;;;;;10.52;4.40;;;17.90;99.90;;;;;;4998535;28;20054;-82
2021/07/31 05:30:07;;;;;;;9.25;4.25;;;17.90;99.90;;;;;;4997768;28;20125;-81
2021/07/31 05:32:35;;;;;;;7.53;3.95;;;17.90;99.90;;;;;;4998182;28;20085;-80
2021/07/31 05:35:03;;;;;;;9.40;4.40;;;17.70;99.90;;;;;;4998732;28;20414;-79
2021/07/31 05:37:31;;;;;;;9.82;4.28;;;17.70;99.90;;;;;;4998136;28;20066;-78
2021/07/31 05:39:58;;;;;;;7.75;4.05;;;17.80;99.90;;;;;;5000278;28;20050;-80
2021/07/31 05:42:25;;;;;;;5.55;3.55;;;18.20;99.90;;;;;;5000827;28;20089;-79
2021/07/31 05:44:57;;;;;;;9.48;3.83;;;18.90;99.90;;;;;;4998934;28;20077;-79
2021/07/31 05:47:26;;;;;;;5.60;3.67;;;19.80;99.90;;;;;;4999678;28;20112;-80
2021/07/31 05:49:53;;;;;;;6.45;4.03;;;20.30;99.90;;;;;;5001196;28;20141;-79
2021/07/31 05:52:24;;;;;;;9.40;4.78;;;20.10;99.90;;;;;;4999337;28;20050;-81
2021/07/31 05:54:51;;;;;;;8.50;4.03;;;19.90;99.90;;;;;;4998738;28;20491;-80
2021/07/31 05:57:18;;;;;;;6.80;3.97;;;19.70;99.90;;;;;;4998537;28;20141;-80
2021/07/31 05:59:45;;;;;;;7.90;3.97;;;19.50;99.90;;;;;;4999204;28;20221;-80
2021/07/31 06:02:13;;;;;;;7.38;3.70;;;19.40;99.90;;;;;;4997355;28;20129;-79
2021/07/31 06:04:40;;;;;;;6.57;3.72;;;19.20;99.90;;;;;;4994384;28;20137;-78
2021/07/31 06:07:08;;;;;;;8.32;4.47;;;19.30;99.90;;;;;;4992991;28;20061;-79
2021/07/31 06:09:35;;;;;;;6.63;3.88;;;19.40;99.90;;;;;;4993482;28;20100;-79
2021/07/31 06:12:02;;;;;;;6.65;3.70;;;19.50;99.90;;;;;;4993683;28;20137;-79
2021/07/31 06:14:29;;;;;;;8.90;3.97;;;19.70;99.90;;;;;;4994467;28;20117;-79
2021/07/31 06:16:56;;;;;;;7.38;3.60;;;20.10;99.90;;;;;;4995036;28;20054;-79
2021/07/31 06:19:24;;;;;;;4.78;3.40;;;20.60;99.90;;;;;;4994934;28;20136;-81
2021/07/31 06:21:51;;;;;;;8.63;3.40;;;21.30;99.90;;;;;;4993772;28;20211;-80
2021/07/31 06:24:18;;;;;;;5.93;3.17;;;21.90;99.90;;;;;;4994032;28;20074;-79
2021/07/31 06:26:45;;;;;;;6.45;3.40;;;22.30;99.90;;;;;;4995061;28;20129;-80
2021/07/31 06:29:12;;;;;;;7.78;3.55;;;23.00;99.90;;;;;;4995244;28;20086;-80
2021/07/31 06:31:39;;;;;;;6.88;3.22;;;23.30;99.90;;;;;;4994967;28;20061;-78
2021/07/31 06:34:05;;;;;;;6.30;3.55;;;23.60;99.90;;;;;;4993663;28;20154;-79
2021/07/31 06:36:34;;;;;;;6.30;3.25;;;23.60;99.90;;;;;;4993835;28;20133;-80
2021/07/31 06:39:02;;;;;;;5.63;3.30;;;23.80;99.90;;;;;;4993910;28;20085;-77
2021/07/31 06:41:28;;;;;;;6.43;3.50;;;23.90;99.90;;;;;;4992323;28;20140;-79
2021/07/31 06:43:56;;;;;;;6.32;3.40;;;23.80;99.90;;;;;;4993008;28;20057;-78
2021/07/31 06:46:24;;;;;;;6.03;3.30;;;23.60;99.90;;;;;;4995209;28;20270;-78
2021/07/31 06:48:51;;;;;;;9.68;3.53;;;23.60;99.90;;;;;;4996156;28;20404;-80
2021/07/31 06:51:19;;;;;;;5.88;3.20;;;23.50;99.90;;;;;;4999679;28;20133;-80
2021/07/31 06:53:47;;;;;;;5.68;3.40;;;23.60;99.90;;;;;;5001092;28;20073;-79
2021/07/31 06:56:14;;;;;;;4.93;3.25;;;23.60;99.90;;;;;;5001160;28;20042;-79
2021/07/31 06:58:41;;;;;;;6.20;3.92;;;23.60;99.90;;;;;;5001229;28;20142;-80
2021/07/31 07:01:11;;;;;;;6.43;3.58;;;23.90;99.90;;;;;;5001075;28;20074;-80
2021/07/31 07:03:39;;;;;;;6.38;3.53;;;23.80;99.90;;;;;;4999012;28;20118;-81
2021/07/31 07:06:06;;;;;;;5.65;3.40;;;23.90;99.90;;;;;;4999116;28;20317;-79
2021/07/31 07:08:33;;;;;;;6.65;3.55;;;24.30;99.90;;;;;;4998413;28;20053;-78
2021/07/31 07:11:01;;;;;;;8.63;3.65;;;24.70;99.90;;;;;;4997495;28;20511;-78
2021/07/31 07:13:29;;;;;;;8.05;3.70;;;24.70;99.90;;;;;;4996912;28;20050;-79
2021/07/31 07:15:56;;;;;;;6.85;4.38;;;24.00;99.90;;;;;;4997664;28;20051;-80
2021/07/31 07:18:22;;;;;;;7.88;3.90;;;23.10;99.90;;;;;;4998035;28;20090;-81
2021/07/31 07:20:49;;;;;;;9.57;4.10;;;22.20;99.90;;;;;;4998014;28;20086;-80
2021/07/31 07:23:16;;;;;;;8.38;3.58;;;22.00;99.90;;;;;;4997596;28;20054;-79
2021/07/31 07:25:44;;;;;;;8.73;3.65;;;21.80;99.90;;;;;;4997049;28;20046;-78
2021/07/31 07:28:13;;;;;;;8.18;4.13;;;21.80;99.90;;;;;;4995028;28;20429;-76
2021/07/31 07:30:40;;;;;;;6.38;3.67;;;21.80;99.90;;;;;;4994668;28;20137;-78
2021/07/31 07:33:07;;;;;;;7.43;3.75;;;22.10;99.90;;;;;;4994689;28;20089;-79
2021/07/31 07:35:35;;;;;;;9.27;4.10;;;22.10;99.90;;;;;;4995066;28;20125;-79
2021/07/31 07:38:01;;;;;;;6.22;3.83;;;21.60;99.90;;;;;;4995504;28;20058;-79
2021/07/31 07:40:28;;;;;;;10.98;4.32;;;21.60;99.90;;;;;;4994942;28;20046;-78
2021/07/31 07:42:55;;;;;;;6.10;3.90;;;21.60;99.90;;;;;;4995127;28;20124;-78
2021/07/31 07:45:24;;;;;;;9.73;4.00;;;21.60;99.90;;;;;;5000758;28;20522;-80
2021/07/31 07:47:50;;;;;;;7.85;4.28;;;21.50;99.90;;;;;;4998247;28;20154;-80
2021/07/31 07:50:17;;;;;;;8.05;3.80;;;21.60;99.90;;;;;;4998896;28;20082;-80
2021/07/31 07:52:44;;;;;;;9.60;4.13;;;22.10;99.90;;;;;;4997850;28;20110;-79
2021/07/31 07:55:12;;;;;;;8.88;3.72;;;22.70;99.90;;;;;;4998113;28;20537;-80
2021/07/31 07:57:40;;;;;;;5.65;3.60;;;22.80;99.90;;;;;;4999138;28;20110;-79
2021/07/31 08:00:08;;;;;;;5.30;3.70;;;23.00;99.90;;;;;;4995343;28;20054;-80
2021/07/31 08:02:36;;;;;;;7.38;3.60;;;22.80;99.90;;;;;;4996718;28;20050;-79
2021/07/31 08:05:04;;;;;;;8.02;3.58;;;22.70;99.90;;;;;;4998174;28;20374;-79
2021/07/31 08:07:30;;;;;;;8.70;3.72;;;23.10;99.90;;;;;;4998590;28;20046;-79
2021/07/31 08:09:57;;;;;;;11.23;3.80;;;23.60;99.90;;;;;;4999350;28;20137;-79
2021/07/31 08:12:24;;;;;;;7.78;3.70;;;23.60;99.90;;;;;;4999995;28;20081;-80
2021/07/31 08:14:52;;;;;;;11.38;3.95;;;23.90;99.90;;;;;;4999057;28;20588;-80
2021/07/31 08:17:19;;;;;;;6.75;3.45;;;23.90;99.90;;;;;;4999738;28;20070;-79
2021/07/31 08:19:48;;;;;;;7.47;4.30;;;23.70;99.90;;;;;;4998048;28;20058;-79
2021/07/31 08:22:14;;;;;;;8.15;3.78;;;23.20;99.90;;;;;;4998261;28;20236;-79
2021/07/31 08:24:41;;;;;;;8.65;3.92;;;22.60;99.90;;;;;;4995881;28;20414;-79
2021/07/31 08:27:08;;;;;;;13.23;4.25;;;22.30;99.90;;;;;;4996628;28;20129;-78
2021/07/31 08:29:35;;;;;;;7.32;3.60;;;21.90;99.90;;;;;;4995975;28;20088;-78
2021/07/31 08:32:02;;;;;;;8.60;4.05;;;21.70;99.90;;;;;;4996249;28;20082;-79
2021/07/31 08:34:29;;;;;;;10.90;3.85;;;21.50;99.90;;;;;;4996637;28;20076;-79
2021/07/31 08:37:01;;;;;;;8.45;3.40;;;21.20;99.90;;;;;;4995299;28;20076;-78
2021/07/31 08:39:28;;;;;;;9.95;3.30;;;21.10;99.90;;;;;;4995338;28;20113;-79
2021/07/31 08:41:55;;;;;;;6.13;3.28;;;21.30;99.90;;;;;;4993452;28;20055;-76
2021/07/31 08:44:22;;;;;;;7.47;3.53;;;21.50;99.90;;;;;;4993632;28;20050;-78
2021/07/31 08:46:51;;;;;;;8.82;3.25;;;21.50;99.90;;;;;;4993390;28;20133;-77
2021/07/31 08:49:20;;;;;;;8.18;3.42;;;21.30;99.90;;;;;;4995660;28;20121;-78
2021/07/31 08:51:48;;;;;;;6.60;3.00;;;21.00;99.90;;;;;;5013358;28;20581;-78
2021/07/31 08:54:16;;;;;;;6.20;3.38;;;21.00;99.90;;;;;;5009747;28;20129;-78
2021/07/31 08:56:43;;;;;;;6.60;3.22;;;21.30;99.90;;;;;;5004071;28;20132;-77
2021/07/31 08:59:10;;;;;;;6.95;3.50;;;21.80;99.90;;;;;;5013052;28;20049;-77
2021/07/31 09:01:40;;;;;;;5.90;3.38;;;21.60;99.90;;;;;;5012491;28;20425;-78
2021/07/31 09:04:15;;;;;;;6.53;3.40;;;21.50;99.90;;;;;;5012541;28;20056;-76
2021/07/31 09:06:42;;;;;;;7.43;3.47;;;21.30;99.90;;;;;;5014114;28;20144;-78
2021/07/31 09:09:09;;;;;;;6.57;3.58;;;21.20;99.90;;;;;;5014282;28;20495;-78
2021/07/31 09:11:55;;;;;;;5.80;3.70;;;21.20;99.90;;;;;;5003239;28;20046;-78
2021/07/31 09:14:24;;;;;;;6.95;3.90;;;21.50;99.90;;;;;;5002268;28;20379;-79
2021/07/31 09:16:51;;;;;;;6.15;3.70;;;21.90;99.90;;;;;;4995007;28;20145;-78
2021/07/31 09:19:19;;;;;;;7.60;3.80;;;21.90;99.90;;;;;;4994898;28;20133;-77
2021/07/31 09:21:47;;;;;;;5.32;3.60;;;22.00;99.90;;;;;;4994039;28;20054;-78
2021/07/31 09:24:16;;;;;;;5.35;3.60;;;22.00;99.90;;;;;;4993990;28;20213;-78
2021/07/31 09:26:48;;;;;;;5.35;3.65;;;21.80;99.90;;;;;;4993982;28;20076;-79
2021/07/31 09:29:17;;;;;;;5.43;3.70;;;21.40;99.90;;;;;;4993934;28;20080;-77
2021/07/31 09:31:51;;;;;;;6.88;3.67;;;21.10;99.90;;;;;;4992841;28;20141;-78
2021/07/31 09:34:34;;;;;;;5.15;3.28;;;21.50;99.90;;;;;;5000911;28;20430;-78
2021/07/31 09:37:12;;;;;;;5.10;3.45;;;22.10;99.90;;;;;;5008761;28;20085;-78
2021/07/31 09:39:50;;;;;;;7.20;3.53;;;21.90;99.90;;;;;;5010318;28;20053;-79
2021/07/31 09:42:32;;;;;;;5.30;3.50;;;22.00;99.90;;;;;;5001274;28;20056;-78
2021/07/31 09:45:01;;;;;;;6.53;4.00;;;22.10;99.90;;;;;;5016589;28;20092;-78
2021/07/31 09:47:27;;;;;;;4.85;3.50;;;22.10;99.90;;;;;;5013269;28;20137;-79
2021/07/31 09:49:54;;;;;;;4.95;3.63;;;22.00;99.90;;;;;;5014892;28;20106;-79
2021/07/31 09:52:23;;;;;;;5.22;3.47;;;21.90;99.90;;;;;;5015706;28;20105;-78
2021/07/31 09:54:50;;;;;;;5.97;3.40;;;22.40;99.90;;;;;;5016606;28;20049;-78
2021/07/31 09:57:17;;;;;;;9.32;3.47;;;22.40;99.90;;;;;;5020026;28;20050;-79
2021/07/31 09:59:47;;;;;;;9.15;3.42;;;22.20;99.90;;;;;;5018182;28;20081;-80
2021/07/31 10:02:17;;;;;;;5.13;3.50;;;22.10;99.90;;;;;;5018325;28;20046;-79
2021/07/31 10:04:45;;;;;;;7.10;3.47;;;21.90;99.90;;;;;;5014548;28;20481;-77
2021/07/31 10:07:13;;;;;;;4.60;3.20;;;22.00;99.90;;;;;;5016372;28;20045;-77
2021/07/31 10:09:45;;;;;;;6.57;3.33;;;22.00;99.90;;;;;;5013914;28;20080;-77
2021/07/31 10:12:14;;;;;;;8.35;3.60;;;21.80;99.90;;;;;;5012015;28;20061;-78
2021/07/31 10:14:42;;;;;;;7.85;3.33;;;21.60;99.90;;;;;;5015561;28;20056;-78
2021/07/31 10:17:11;;;;;;;6.70;3.75;;;21.40;99.90;;;;;;5015784;28;20140;-78
2021/07/31 10:19:40;;;;;;;7.70;3.70;;;21.20;99.90;;;;;;5015398;28;20106;-78
2021/07/31 10:22:07;;;;;;;5.93;3.40;;;21.10;99.90;;;;;;5012218;28;20054;-76
2021/07/31 10:28:24;;;;;;;5.53;2.90;;;21.30;99.90;;;;;;4982064;28;20169;-81
2021/07/31 10:36:55;;;;;;;6.53;3.60;;;21.10;99.90;;;;;;5010183;28;20101;-80
2021/07/31 10:39:45;;;;;;;7.32;3.55;;;21.10;99.90;;;;;;5020261;28;20084;-81
2021/07/31 10:42:12;;;;;;;7.80;3.63;;;21.50;99.90;;;;;;5034160;28;20470;-82
2021/07/31 10:45:22;;;;;;;6.00;3.47;;;21.80;99.90;;;;;;5041950;28;20505;-82
2021/07/31 10:48:26;;;;;;;5.97;3.67;;;22.30;99.90;;;;;;5023545;28;20466;-81
2021/07/31 10:50:57;;;;;;;5.40;3.47;;;22.20;99.90;;;;;;5021158;28;20086;-81
2021/07/31 10:54:04;;;;;;;6.07;3.50;;;22.20;99.90;;;;;;5034475;28;20081;-80
2021/07/31 10:56:56;;;;;;;5.88;3.85;;;22.40;99.90;;;;;;5032514;28;20052;-82
2021/07/31 10:59:23;;;;;;;8.07;3.60;;;22.50;99.90;;;;;;5029065;28;20056;-81
2021/07/31 11:01:50;;;;;;;6.68;3.70;;;22.60;99.90;;;;;;5028909;28;20065;-81
2021/07/31 11:04:53;;;;;;;6.53;3.90;;;22.90;99.90;;;;;;5032570;28;20092;-83
2021/07/31 11:07:27;;;;;;;6.43;3.50;;;23.00;99.90;;;;;;5022342;28;20129;-80
2021/07/31 11:10:31;;;;;;;6.93;3.70;;;22.80;99.90;;;;;;5031893;28;20096;-82
2021/07/31 11:12:58;;;;;;;7.43;3.97;;;22.60;99.90;;;;;;5037169;28;20087;-81
2021/07/31 11:15:25;;;;;;;8.30;4.00;;;22.70;99.90;;;;;;5034010;28;20104;-81
2021/07/31 11:17:57;;;;;;;6.88;3.95;;;22.70;99.90;;;;;;5032371;28;20129;-82
2021/07/31 11:20:25;;;;;;;5.25;3.33;;;22.70;99.90;;;;;;5020603;28;20126;-83
2021/07/31 11:22:55;;;;;;;5.00;3.30;;;22.80;99.90;;;;;;5020308;28;20058;-79
2021/07/31 11:25:23;;;;;;;5.38;3.30;;;22.80;99.90;;;;;;5035980;28;20105;-81
2021/07/31 11:27:57;;;;;;;5.13;3.50;;;22.60;99.90;;;;;;5027631;28;20073;-81
2021/07/31 11:30:34;;;;;;;6.90;3.60;;;22.40;99.90;;;;;;5026412;28;20054;-81
2021/07/31 11:33:17;;;;;;;6.90;3.80;;;22.30;99.90;;;;;;5035850;28;20429;-82
2021/07/31 11:35:44;;;;;;;4.28;3.30;;;22.30;99.90;;;;;;5026770;28;20045;-78
2021/07/31 11:38:33;;;;;;;5.88;3.70;;;22.40;99.90;;;;;;5028050;28;20037;-81
2021/07/31 11:41:03;;;;;;;4.60;3.40;;;22.40;99.90;;;;;;5038895;28;20080;-82
2021/07/31 11:43:41;;;;;;;4.13;3.40;;;22.40;99.90;;;;;;5022439;28;20132;-82
2021/07/31 11:46:09;;;;;;;7.18;3.70;;;22.30;99.90;;;;;;5022804;28;20491;-80
2021/07/31 11:48:35;;;;;;;6.43;3.90;;;22.50;99.90;;;;;;5022306;28;20148;-83
2021/07/31 11:51:04;;;;;;;5.57;3.67;;;22.60;99.90;;;;;;5027770;28;20109;-80
2021/07/31 11:53:32;;;;;;;9.55;3.90;;;22.80;99.90;;;;;;5042876;28;20113;-82
2021/07/31 11:56:14;;;;;;;5.68;4.05;;;23.00;99.90;;;;;;5032250;28;20136;-82
2021/07/31 11:58:43;;;;;;;6.63;4.43;;;22.90;99.90;;;;;;5037151;28;20056;-83
2021/07/31 12:01:10;;;;;;;6.72;3.80;;;23.00;99.90;;;;;;5040414;28;20123;-81
2021/07/31 12:03:49;;;;;;;7.53;4.00;;;23.00;99.90;;;;;;5025186;28;20049;-82
2021/07/31 12:06:39;;;;;;;4.97;3.22;;;23.20;99.90;;;;;;5029649;28;20573;-82
2021/07/31 12:09:19;;;;;;;4.65;3.00;;;23.50;99.90;;;;;;5024290;28;20129;-81
2021/07/31 12:11:47;;;;;;;3.50;2.95;;;23.70;99.90;;;;;;5025419;28;20614;-83
2021/07/31 12:14:34;;;;;;;4.22;3.10;;;23.70;99.90;;;;;;5029822;28;20105;-81
2021/07/31 12:17:21;;;;;;;5.57;3.20;;;23.60;99.90;;;;;;5040348;28;20081;-82
2021/07/31 12:19:49;;;;;;;5.72;3.50;;;23.70;99.90;;;;;;5032985;28;20083;-81
2021/07/31 12:22:17;;;;;;;5.18;3.30;;;23.90;99.90;;;;;;5039002;28;20228;-81
2021/07/31 12:25:06;;;;;;;3.90;3.03;;;23.90;99.90;;;;;;5041853;28;20166;-80
2021/07/31 12:27:54;;;;;;;3.90;3.17;;;24.00;99.90;;;;;;5031812;28;20049;-81
2021/07/31 12:30:26;;;;;;;5.68;3.45;;;24.00;99.90;;;;;;5041617;28;20136;-80
2021/07/31 12:32:54;;;;;;;4.57;3.28;;;23.80;99.90;;;;;;5040638;28;20105;-81
2021/07/31 12:35:35;;;;;;;4.93;3.20;;;23.80;99.90;;;;;;5039606;28;20132;-81
2021/07/31 12:38:09;;;;;;;5.07;3.42;;;23.90;99.90;;;;;;5033177;28;20038;-80
2021/07/31 12:40:39;;;;;;;3.35;3.05;;;24.10;99.90;;;;;;5039794;28;20593;-82
2021/07/31 12:43:08;;;;;;;6.40;3.83;;;23.90;99.90;;;;;;5021463;28;20140;-82
2021/07/31 12:45:35;;;;;;;5.88;3.20;;;23.70;99.90;;;;;;5028795;28;20056;-82
2021/07/31 12:48:02;;;;;;;4.55;3.47;;;23.40;99.90;;;;;;5033489;28;20041;-82
2021/07/31 12:50:28;;;;;;;4.60;3.40;;;23.00;99.90;;;;;;5027878;28;20129;-81
2021/07/31 12:52:56;;;;;;;4.28;3.28;;;22.80;99.90;;;;;;5034423;28;20124;-79
2021/07/31 12:55:24;;;;;;;5.45;3.42;;;22.60;99.90;;;;;;5029328;28;20609;-81
2021/07/31 12:57:52;;;;;;;7.45;3.45;;;22.50;99.90;;;;;;5029955;28;20057;-80
2021/07/31 13:00:19;;;;;;;5.85;3.35;;;22.50;99.90;;;;;;5026396;28;20077;-80
2021/07/31 13:02:48;;;;;;;3.28;2.58;;;22.60;99.90;;;;;;5024707;28;20121;-81
2021/07/31 13:05:15;;;;;;;4.72;2.50;;;22.70;99.90;;;;;;5027022;28;20132;-83
2021/07/31 13:07:43;;;;;;;6.20;2.70;;;22.80;99.90;;;;;;5038346;28;20069;-82
2021/07/31 13:10:10;;;;;;;3.20;2.80;;;23.00;99.90;;;;;;5033544;28;20057;-81
2021/07/31 13:12:38;;;;;;;4.10;3.30;;;23.00;99.90;;;;;;5028745;28;20085;-83
2021/07/31 13:15:07;;;;;;;6.35;3.08;;;23.00;99.90;;;;;;5038526;28;20112;-83